createdAt,value
2023-02-14T00:01:12.871Z,18.45
2023-02-14T00:06:35.759Z,18.41
2023-02-14T00:11:57.424Z,18.38
2023-02-14T00:17:19.217Z,18.35
2023-02-14T00:22:41.159Z,18.34
2023-02-14T00:28:02.900Z,18.31
2023-02-14T00:33:24.582Z,18.28
2023-02-14T00:38:46.354Z,18.24
2023-02-14T00:44:09.814Z,18.21
2023-02-14T00:49:31.674Z,18.20
2023-02-14T00:54:53.367Z,18.18
2023-02-14T01:00:15.630Z,18.15
2023-02-14T01:05:37.413Z,18.13
2023-02-14T01:11:06.363Z,18.11
2023-02-14T01:16:29.316Z,18.08
2023-02-14T01:21:51.067Z,18.07
2023-02-14T01:27:12.866Z,18.06
2023-02-14T01:32:35.107Z,18.04
2023-02-14T01:37:57.140Z,18.02
2023-02-14T01:43:18.968Z,18.02
2023-02-14T01:48:41.124Z,17.98
2023-02-14T01:54:05.931Z,17.97
2023-02-14T01:59:33.665Z,17.94
2023-02-14T02:04:56.716Z,17.92
2023-02-14T02:10:19.280Z,17.91
2023-02-14T02:16:25.765Z,17.90
2023-02-14T02:22:22.405Z,17.88
2023-02-14T02:28:03.628Z,17.84
2023-02-14T02:33:31.279Z,17.81
2023-02-14T02:39:17.724Z,17.83
2023-02-14T02:44:59.954Z,17.78
2023-02-14T02:50:48.996Z,17.77
2023-02-14T02:56:38.561Z,17.75
2023-02-14T03:02:32.297Z,17.74
2023-02-14T03:07:54.021Z,17.72
2023-02-14T03:13:34.151Z,17.72
2023-02-14T03:19:39.306Z,17.71
2023-02-14T03:25:17.461Z,17.68
2023-02-14T03:31:00.650Z,17.65
2023-02-14T03:36:29.658Z,17.63
2023-02-14T03:41:58.007Z,17.61
2023-02-14T03:47:25.021Z,17.63
2023-02-14T03:52:51.042Z,17.59
2023-02-14T03:58:37.745Z,17.61
2023-02-14T04:03:59.835Z,17.56
2023-02-14T04:09:21.554Z,17.54
2023-02-14T04:14:43.243Z,17.54
2023-02-14T04:20:05.833Z,17.54
2023-02-14T04:25:27.902Z,17.53
2023-02-14T04:30:49.603Z,17.51
2023-02-14T04:36:11.284Z,17.50
2023-02-14T04:41:32.970Z,17.49
2023-02-14T04:46:54.834Z,17.47
2023-02-14T04:52:16.620Z,17.47
2023-02-14T04:57:38.369Z,17.44
2023-02-14T05:03:00.112Z,17.44
2023-02-14T05:08:21.798Z,17.42
2023-02-14T05:13:43.501Z,17.40
2023-02-14T05:19:05.318Z,17.40
2023-02-14T05:24:27.075Z,17.39
2023-02-14T05:29:48.822Z,17.38
2023-02-14T05:35:10.683Z,17.37
2023-02-14T05:40:33.121Z,17.35
2023-02-14T05:45:54.926Z,17.35
2023-02-14T05:51:16.686Z,17.34
2023-02-14T05:56:38.532Z,17.32
2023-02-14T06:02:00.324Z,17.30
2023-02-14T06:07:22.145Z,17.28
2023-02-14T06:12:44.242Z,17.30
2023-02-14T06:18:06.243Z,17.28
2023-02-14T06:23:28.056Z,17.28
2023-02-14T06:28:56.459Z,17.26
2023-02-14T06:34:18.178Z,17.26
2023-02-14T06:39:40.351Z,17.24
2023-02-14T06:45:02.958Z,17.24
2023-02-14T06:50:25.606Z,17.21
2023-02-14T06:55:47.756Z,17.21
2023-02-14T07:01:09.640Z,17.19
2023-02-14T07:06:31.743Z,17.20
2023-02-14T07:11:53.463Z,17.21
2023-02-14T07:17:15.225Z,17.21
2023-02-14T07:22:37.461Z,17.20
2023-02-14T07:27:59.534Z,17.22
2023-02-14T07:33:21.316Z,17.24
2023-02-14T07:38:43.143Z,17.38
2023-02-14T07:44:05.198Z,17.50
2023-02-14T07:49:27.054Z,17.53
2023-02-14T07:54:48.824Z,17.57
2023-02-14T08:00:10.976Z,17.67
2023-02-14T08:05:32.806Z,17.77
2023-02-14T08:10:54.789Z,17.85
2023-02-14T08:16:16.566Z,18.10
2023-02-14T08:21:38.506Z,18.53
2023-02-14T08:27:00.431Z,18.74
2023-02-14T08:32:22.274Z,18.87
2023-02-14T08:37:44.043Z,19.07
2023-02-14T08:43:07.590Z,19.29
2023-02-14T08:48:29.421Z,19.64
2023-02-14T08:53:52.169Z,19.74
2023-02-14T08:59:13.816Z,19.38
2023-02-14T09:04:36.122Z,19.17
2023-02-14T09:09:57.838Z,18.94
2023-02-14T09:15:19.961Z,18.71
2023-02-14T09:20:41.806Z,18.52
2023-02-14T09:26:05.696Z,18.36
2023-02-14T09:31:27.504Z,18.21
2023-02-14T09:36:49.208Z,18.12
2023-02-14T09:42:29.412Z,18.05
2023-02-14T09:48:11.457Z,17.98
2023-02-14T09:53:37.092Z,17.88
2023-02-14T09:59:01.437Z,17.80
2023-02-14T10:04:37.126Z,17.79
2023-02-14T10:10:18.683Z,17.73
2023-02-14T10:15:45.065Z,17.69
2023-02-14T10:21:08.448Z,17.67
2023-02-14T10:26:37.280Z,17.66
2023-02-14T10:32:04.701Z,17.63
2023-02-14T10:38:05.076Z,17.61
2023-02-14T10:43:37.205Z,17.57
2023-02-14T10:49:24.873Z,17.54
2023-02-14T10:55:00.211Z,17.53
2023-02-14T11:00:31.094Z,17.53
2023-02-14T11:05:52.918Z,17.49
2023-02-14T11:11:24.009Z,17.48
2023-02-14T11:16:45.779Z,17.46
2023-02-14T11:22:10.362Z,17.45
2023-02-14T11:27:32.776Z,17.43
2023-02-14T11:32:57.522Z,17.44
2023-02-14T11:38:40.154Z,17.46
2023-02-14T11:44:22.340Z,17.47
2023-02-14T11:50:02.763Z,17.48
2023-02-14T11:55:28.391Z,17.45
2023-02-14T12:00:53.449Z,17.42
2023-02-14T12:06:36.593Z,17.46
2023-02-14T12:12:01.307Z,17.43
2023-02-14T12:17:33.768Z,17.42
2023-02-14T12:23:02.907Z,17.42
2023-02-14T12:28:41.564Z,17.42
2023-02-14T12:34:04.170Z,17.38
2023-02-14T12:40:02.443Z,17.41
2023-02-14T12:45:43.733Z,17.39
2023-02-14T12:51:26.432Z,17.38
2023-02-14T12:56:56.136Z,17.36
2023-02-14T13:02:38.690Z,17.38
2023-02-14T13:08:17.872Z,17.37
2023-02-14T13:13:48.387Z,17.34
2023-02-14T13:19:37.871Z,17.34
2023-02-14T13:25:16.338Z,17.34
2023-02-14T13:30:38.995Z,17.31
2023-02-14T13:36:04.206Z,17.30
2023-02-14T13:41:28.257Z,17.30
2023-02-14T13:46:52.203Z,17.31
2023-02-14T13:52:14.162Z,17.29
2023-02-14T13:57:37.804Z,17.29
2023-02-14T14:02:59.557Z,17.28
2023-02-14T14:08:21.277Z,17.28
2023-02-14T14:13:43.056Z,17.27
2023-02-14T14:19:17.175Z,17.29
2023-02-14T14:24:41.153Z,17.27
2023-02-14T14:30:15.542Z,17.28
2023-02-14T14:35:37.337Z,17.24
2023-02-14T14:41:01.154Z,17.24
2023-02-14T14:46:23.865Z,17.23
2023-02-14T14:51:45.884Z,17.24
2023-02-14T14:57:07.652Z,17.23
2023-02-14T15:02:32.097Z,17.21
2023-02-14T15:07:54.044Z,17.22
2023-02-14T15:13:34.412Z,17.21
2023-02-14T15:18:59.903Z,17.20
2023-02-14T15:24:21.716Z,17.20
2023-02-14T15:29:54.395Z,17.21
2023-02-14T15:35:19.559Z,17.19
2023-02-14T15:40:43.851Z,17.18
2023-02-14T15:46:28.583Z,17.18
2023-02-14T15:51:51.220Z,17.15
2023-02-14T15:57:24.255Z,17.16
2023-02-14T16:02:49.138Z,17.13
2023-02-14T16:08:31.857Z,17.15
2023-02-14T16:13:53.826Z,17.16
2023-02-14T16:19:42.350Z,17.27
2023-02-14T16:25:04.156Z,17.36
2023-02-14T16:30:25.866Z,17.45
2023-02-14T16:35:48.988Z,17.54
2023-02-14T16:41:33.089Z,17.62
2023-02-14T16:46:54.847Z,17.63
2023-02-14T16:52:21.795Z,17.64
2023-02-14T16:57:47.591Z,17.62
2023-02-14T17:03:11.616Z,17.62
2023-02-14T17:08:33.426Z,17.63
2023-02-14T17:13:55.951Z,17.64
2023-02-14T17:19:17.995Z,17.64
2023-02-14T17:24:40.121Z,17.59
2023-02-14T17:30:01.897Z,17.67
2023-02-14T17:35:23.689Z,17.99
2023-02-14T17:40:45.438Z,18.58
2023-02-14T17:46:08.006Z,19.22
2023-02-14T17:51:29.851Z,19.76
2023-02-14T17:56:51.525Z,20.10
2023-02-14T18:02:13.839Z,20.21
2023-02-14T18:07:35.973Z,20.19
2023-02-14T18:12:57.842Z,20.07
2023-02-14T18:18:20.006Z,19.89
2023-02-14T18:23:42.008Z,19.69
2023-02-14T18:29:07.416Z,19.49
2023-02-14T18:34:32.951Z,19.31
2023-02-14T18:39:54.638Z,19.13
2023-02-14T18:45:16.443Z,19.00
2023-02-14T18:50:38.242Z,18.87
2023-02-14T18:56:04.185Z,18.81
2023-02-14T19:01:31.685Z,19.02
2023-02-14T19:06:53.850Z,19.48
2023-02-14T19:12:15.864Z,20.12
2023-02-14T19:17:38.493Z,20.69
2023-02-14T19:23:00.145Z,21.12
2023-02-14T19:28:21.972Z,21.41
2023-02-14T19:33:45.462Z,21.63
2023-02-14T19:39:07.201Z,21.80
2023-02-14T19:44:30.307Z,21.76
2023-02-14T19:49:52.169Z,21.59
2023-02-14T19:55:21.441Z,21.36
2023-02-14T20:00:43.299Z,21.12
2023-02-14T20:06:05.118Z,20.90
2023-02-14T20:11:35.708Z,20.73
2023-02-14T20:16:59.889Z,20.58
2023-02-14T20:22:23.312Z,20.50
2023-02-14T20:27:45.042Z,20.43
2023-02-14T20:33:06.852Z,20.36
2023-02-14T20:38:28.561Z,20.32
2023-02-14T20:43:50.302Z,20.26
2023-02-14T20:49:12.493Z,20.23
2023-02-14T20:54:34.239Z,20.23
2023-02-14T20:59:56.047Z,20.24
2023-02-14T21:05:18.634Z,20.27
2023-02-14T21:10:40.481Z,20.31
2023-02-14T21:16:11.831Z,20.35
2023-02-14T21:21:39.696Z,20.37
2023-02-14T21:27:02.364Z,20.34
2023-02-14T21:32:24.105Z,20.24
2023-02-14T21:37:45.840Z,20.15
2023-02-14T21:43:07.538Z,20.06
2023-02-14T21:48:48.134Z,19.94
2023-02-14T21:54:10.270Z,19.80
2023-02-14T21:59:31.958Z,19.71
2023-02-14T22:04:53.696Z,19.61
2023-02-14T22:10:15.445Z,19.53
2023-02-14T22:15:40.255Z,19.42
2023-02-14T22:21:04.453Z,19.29
2023-02-14T22:26:29.348Z,19.20
2023-02-14T22:31:51.262Z,19.11
2023-02-14T22:37:13.054Z,19.06
2023-02-14T22:42:34.765Z,18.97
2023-02-14T22:47:56.826Z,18.91
2023-02-14T22:53:18.648Z,18.84
2023-02-14T22:58:40.533Z,18.79
2023-02-14T23:04:03.737Z,18.73
2023-02-14T23:09:25.662Z,18.66
2023-02-14T23:15:05.732Z,18.61
2023-02-14T23:20:46.308Z,18.56
2023-02-14T23:26:08.102Z,18.51
2023-02-14T23:31:30.115Z,18.49
2023-02-14T23:36:52.019Z,18.43
2023-02-14T23:42:15.244Z,18.38
2023-02-14T23:47:36.936Z,18.35
2023-02-14T23:52:59.426Z,18.31
2023-02-14T23:58:21.151Z,18.27
